Time;durP1;ratioP1;P1;durP2;ratioP2;P2;SDS_P1;SDS_P2;PMS_P1;PMS_P2;Temp;Humidity;BMP_temperature;BMP_pressure;BME280_temperature;BME280_humidity;BME280_pressure;Samples;Min_cycle;Max_cycle;Signal;HPM_P1;HPM_P2
2022/08/24 00:01:27;;;;;;;;;;;19.70;99.90;;;;;;4961639;28;20324;-69
2022/08/24 00:03:54;;;;;;;;;;;19.80;99.90;;;;;;4962450;28;20813;-69
2022/08/24 00:06:21;;;;;;;;;;;19.70;99.90;;;;;;4959794;28;20013;-70
2022/08/24 00:08:49;;;;;;;;;;;19.70;99.90;;;;;;4964534;28;20403;-69
2022/08/24 00:11:17;;;;;;;;;;;19.70;99.90;;;;;;4968151;28;19933;-70
2022/08/24 00:13:45;;;;;;;;;;;19.70;99.90;;;;;;4962624;28;19930;-70
2022/08/24 00:16:13;;;;;;;;;;;19.70;99.90;;;;;;4959197;28;19934;-70
2022/08/24 00:18:39;;;;;;;;;;;19.60;99.90;;;;;;4960455;28;20254;-70
2022/08/24 00:21:06;;;;;;;;;;;19.60;99.90;;;;;;4973267;28;19930;-70
2022/08/24 00:23:33;;;;;;;;;;;19.60;99.90;;;;;;4960334;28;20017;-69
2022/08/24 00:26:00;;;;;;;;;;;19.60;99.90;;;;;;4961930;28;20036;-69
2022/08/24 00:28:27;;;;;;;;;;;19.60;99.90;;;;;;4959994;28;20388;-69
2022/08/24 00:30:55;;;;;;;;;;;19.60;99.90;;;;;;4961460;28;20112;-69
2022/08/24 00:33:22;;;;;;;;;;;19.50;99.90;;;;;;4963081;28;19926;-69
2022/08/24 00:35:48;;;;;;;;;;;19.50;99.90;;;;;;4961759;28;19927;-69
2022/08/24 00:38:15;;;;;;;;;;;19.40;99.90;;;;;;4962563;28;19977;-69
2022/08/24 00:40:45;;;;;;;;;;;19.40;99.90;;;;;;4959618;28;19934;-70
2022/08/24 00:43:11;;;;;;;;;;;19.30;99.90;;;;;;4956333;28;19926;-69
2022/08/24 00:45:42;;;;;;;;;;;19.30;99.90;;;;;;4958223;28;19926;-69
2022/08/24 00:48:13;;;;;;;;;;;19.30;99.90;;;;;;4968552;28;19961;-69
2022/08/24 00:50:42;;;;;;;;;;;19.30;99.90;;;;;;4959329;28;20429;-69
2022/08/24 00:53:10;;;;;;;;;;;19.30;99.90;;;;;;4962804;28;19926;-69
2022/08/24 00:55:38;;;;;;;;;;;19.30;99.90;;;;;;4965774;28;20012;-69
2022/08/24 00:58:08;;;;;;;;;;;19.30;99.90;;;;;;4961175;28;19926;-69
2022/08/24 01:00:40;;;;;;;;;;;19.20;99.90;;;;;;4955322;28;19933;-69
2022/08/24 01:03:07;;;;;;;;;;;19.10;99.90;;;;;;4959488;28;19937;-69
2022/08/24 01:05:37;;;;;;;;;;;19.10;99.90;;;;;;4960853;28;19926;-69
2022/08/24 01:08:05;;;;;;;;;;;19.10;99.90;;;;;;4959274;28;20481;-69
2022/08/24 01:10:33;;;;;;;;;;;19.10;99.90;;;;;;4960288;28;19936;-69
2022/08/24 01:13:02;;;;;;;;;;;19.00;99.90;;;;;;4963687;28;20021;-69
2022/08/24 01:15:29;;;;;;;;;;;19.00;99.90;;;;;;4957640;28;20553;-69
2022/08/24 01:20:42;;;;;;;;;;;19.00;99.90;;;;;;4959204;28;19987;-69
2022/08/24 01:23:12;;;;;;;;;;;19.60;99.90;;;;;;4966262;28;19999;-69
2022/08/24 01:25:42;;;;;;;;;;;19.00;99.90;;;;;;4958367;28;19958;-69
2022/08/24 01:28:11;;;;;;;;;;;19.00;99.90;;;;;;4958613;28;19926;-69
2022/08/24 01:30:38;;;;;;;;;;;18.90;99.90;;;;;;4957428;28;21053;-69
2022/08/24 01:33:06;;;;;;;;;;;18.90;99.90;;;;;;4960629;28;20035;-69
2022/08/24 01:35:34;;;;;;;;;;;18.90;99.90;;;;;;4956474;28;20024;-69
2022/08/24 01:38:02;;;;;;;;;;;18.80;99.90;;;;;;4958069;28;20021;-69
2022/08/24 01:40:31;;;;;;;;;;;18.80;99.90;;;;;;4956272;28;20017;-69
2022/08/24 01:42:59;;;;;;;;;;;18.80;99.90;;;;;;4959211;28;19956;-69
2022/08/24 01:45:26;;;;;;;;;;;18.80;99.90;;;;;;4956619;28;19930;-69
2022/08/24 01:47:53;;;;;;;;;;;18.80;99.90;;;;;;4960165;28;19965;-69
2022/08/24 01:50:20;;;;;;;;;;;18.80;99.90;;;;;;4958607;28;19926;-69
2022/08/24 01:52:47;;;;;;;;;;;18.80;99.90;;;;;;4960103;28;19973;-70
2022/08/24 01:55:15;;;;;;;;;;;18.80;99.90;;;;;;4970120;28;20336;-70
2022/08/24 01:57:42;;;;;;;;;;;18.70;99.90;;;;;;4958868;28;19960;-69
2022/08/24 02:00:13;;;;;;;;;;;18.70;99.90;;;;;;4960271;28;20458;-70
2022/08/24 02:02:40;;;;;;;;;;;18.70;99.90;;;;;;4958389;28;20296;-69
2022/08/24 02:05:07;;;;;;;;;;;18.60;99.90;;;;;;4955818;28;20032;-69
2022/08/24 02:07:33;;;;;;;;;;;18.60;99.90;;;;;;4958933;28;19930;-69
2022/08/24 02:10:00;;;;;;;;;;;18.60;99.90;;;;;;4956591;28;19999;-69
2022/08/24 02:12:27;;;;;;;;;;;18.60;99.90;;;;;;4957587;28;20025;-69
2022/08/24 02:14:54;;;;;;;;;;;18.60;99.90;;;;;;4958527;28;19926;-69
2022/08/24 02:17:22;;;;;;;;;;;18.60;99.90;;;;;;4962609;28;20148;-69
2022/08/24 02:19:48;;;;;;;;;;;18.50;99.90;;;;;;4958550;28;19942;-70
2022/08/24 02:22:15;;;;;;;;;;;18.60;99.90;;;;;;4957397;28;19932;-69
2022/08/24 02:24:42;;;;;;;;;;;18.60;99.90;;;;;;4956978;28;20407;-70
2022/08/24 02:27:08;;;;;;;;;;;18.60;99.90;;;;;;4959166;28;19930;-69
2022/08/24 02:29:35;;;;;;;;;;;18.60;99.90;;;;;;4960252;28;19936;-70
2022/08/24 02:32:02;;;;;;;;;;;18.60;99.90;;;;;;4963890;28;20365;-69
2022/08/24 02:34:30;;;;;;;;;;;18.60;99.90;;;;;;4961187;28;19941;-70
2022/08/24 02:36:57;;;;;;;;;;;18.60;99.90;;;;;;4967668;28;20391;-70
2022/08/24 02:39:23;;;;;;;;;;;18.60;99.90;;;;;;4959574;28;19936;-69
2022/08/24 02:41:51;;;;;;;;;;;18.60;99.90;;;;;;4965196;28;19926;-70
2022/08/24 02:44:18;;;;;;;;;;;18.60;99.90;;;;;;4964754;28;20457;-69
2022/08/24 02:46:44;;;;;;;;;;;18.60;99.90;;;;;;4967349;28;19969;-69
2022/08/24 02:49:11;;;;;;;;;;;18.60;99.90;;;;;;4966255;28;19932;-69
2022/08/24 02:51:40;;;;;;;;;;;18.50;99.90;;;;;;4970625;28;19937;-69
2022/08/24 02:54:08;;;;;;;;;;;18.50;99.90;;;;;;4961823;28;19930;-70
2022/08/24 02:56:35;;;;;;;;;;;18.50;99.90;;;;;;4964003;28;20078;-70
2022/08/24 02:59:02;;;;;;;;;;;18.50;99.90;;;;;;4969170;28;20366;-70
2022/08/24 03:01:29;;;;;;;;;;;18.40;99.90;;;;;;4971271;28;20029;-69
2022/08/24 03:03:56;;;;;;;;;;;18.40;99.90;;;;;;4963808;28;20036;-69
2022/08/24 03:06:23;;;;;;;;;;;18.50;99.90;;;;;;4968568;28;19941;-69
2022/08/24 03:08:51;;;;;;;;;;;18.40;99.90;;;;;;4974756;28;19951;-70
2022/08/24 03:11:18;;;;;;;;;;;18.40;99.90;;;;;;4970955;28;19952;-69
2022/08/24 03:13:44;;;;;;;;;;;18.40;99.90;;;;;;4963913;28;19930;-69
2022/08/24 03:16:11;;;;;;;;;;;18.30;99.90;;;;;;4964397;28;19984;-69
2022/08/24 03:18:38;;;;;;;;;;;18.30;99.90;;;;;;4966423;28;20009;-69
2022/08/24 03:21:05;;;;;;;;;;;18.20;99.90;;;;;;4972511;28;19926;-69
2022/08/24 03:23:32;;;;;;;;;;;18.20;99.90;;;;;;4967386;28;20013;-69
2022/08/24 03:26:01;;;;;;;;;;;18.30;99.90;;;;;;4969937;28;19934;-69
2022/08/24 03:28:28;;;;;;;;;;;18.30;99.90;;;;;;4972373;28;19926;-70
2022/08/24 03:30:55;;;;;;;;;;;18.30;99.90;;;;;;4969055;28;20371;-69
2022/08/24 03:33:22;;;;;;;;;;;18.20;99.90;;;;;;4968359;28;19926;-69
2022/08/24 03:35:48;;;;;;;;;;;18.20;99.90;;;;;;4970031;28;20273;-69
2022/08/24 03:38:15;;;;;;;;;;;18.20;99.90;;;;;;4969584;28;19979;-69
2022/08/24 03:40:42;;;;;;;;;;;18.20;99.90;;;;;;4972713;28;20013;-69
2022/08/24 03:43:44;;;;;;;;;;;18.20;99.90;;;;;;4970820;28;19975;-69
2022/08/24 03:45:59;;;;;;;;;;;18.10;99.90;;;;;;4963750;28;20350;-69
2022/08/24 03:48:26;;;;;;;;;;;18.20;99.90;;;;;;4966962;28;19933;-70
2022/08/24 03:50:53;;;;;;;;;;;18.10;99.90;;;;;;4975868;28;19933;-69
2022/08/24 03:53:19;;;;;;;;;;;18.10;99.90;;;;;;4966681;28;19926;-70
2022/08/24 03:55:46;;;;;;;;;;;18.10;99.90;;;;;;4968281;28;20017;-70
2022/08/24 03:58:14;;;;;;;;;;;18.10;99.90;;;;;;4967948;28;19930;-69
2022/08/24 04:00:41;;;;;;;;;;;18.00;99.90;;;;;;4959094;28;20036;-69
2022/08/24 04:03:08;;;;;;;;;;;18.00;99.90;;;;;;4961404;28;20068;-70
2022/08/24 04:05:35;;;;;;;;;;;18.00;99.90;;;;;;4963867;28;19926;-69
2022/08/24 04:08:02;;;;;;;;;;;18.00;99.90;;;;;;4965330;28;19937;-69
2022/08/24 04:10:29;;;;;;;;;;;18.00;99.90;;;;;;4962259;28;19934;-69
2022/08/24 04:12:55;;;;;;;;;;;18.00;99.90;;;;;;4960470;28;20024;-68
2022/08/24 04:15:24;;;;;;;;;;;18.00;99.90;;;;;;4960725;28;20018;-69
2022/08/24 04:17:50;;;;;;;;;;;18.00;99.90;;;;;;4966220;28;19926;-70
2022/08/24 04:20:17;;;;;;;;;;;17.90;99.90;;;;;;4958288;28;19926;-68
2022/08/24 04:22:44;;;;;;;;;;;18.00;99.90;;;;;;4959140;28;20032;-67
2022/08/24 04:25:12;;;;;;;;;;;18.00;99.90;;;;;;4966237;28;20024;-68
2022/08/24 04:27:39;;;;;;;;;;;18.00;99.90;;;;;;4963751;28;20382;-68
2022/08/24 04:30:06;;;;;;;;;;;17.90;99.90;;;;;;4955560;28;20402;-69
2022/08/24 04:32:35;;;;;;;;;;;17.90;99.90;;;;;;4961172;28;19926;-68
2022/08/24 04:35:02;;;;;;;;;;;17.90;99.90;;;;;;4963504;28;20443;-68
2022/08/24 04:37:29;;;;;;;;;;;17.90;99.90;;;;;;4960626;28;20282;-70
2022/08/24 04:39:55;;;;;;;;;;;17.90;99.90;;;;;;4966576;28;19937;-69
2022/08/24 04:42:22;;;;;;;;;;;17.90;99.90;;;;;;4963341;28;19931;-69
2022/08/24 04:44:49;;;;;;;;;;;17.90;99.90;;;;;;4967020;28;20230;-69
2022/08/24 04:47:15;;;;;;;;;;;17.90;99.90;;;;;;4960716;28;20353;-69
2022/08/24 04:49:43;;;;;;;;;;;17.90;99.90;;;;;;4959961;28;19926;-69
2022/08/24 04:52:10;;;;;;;;;;;17.90;99.90;;;;;;4965135;28;19932;-69
2022/08/24 04:54:37;;;;;;;;;;;17.90;99.90;;;;;;4965015;28;20345;-69
2022/08/24 04:57:04;;;;;;;;;;;17.80;99.90;;;;;;4960878;28;20173;-68
2022/08/24 04:59:31;;;;;;;;;;;17.80;99.90;;;;;;4959519;28;19948;-68
2022/08/24 05:01:57;;;;;;;;;;;17.90;99.90;;;;;;4957293;28;20396;-69
2022/08/24 05:04:24;;;;;;;;;;;17.90;99.90;;;;;;4958240;28;20404;-68
2022/08/24 05:06:52;;;;;;;;;;;17.90;99.90;;;;;;4964420;28;20029;-68
2022/08/24 05:09:19;;;;;;;;;;;17.90;99.90;;;;;;4965463;28;19934;-68
2022/08/24 05:11:46;;;;;;;;;;;17.90;99.90;;;;;;4960979;28;19979;-69
2022/08/24 05:14:13;;;;;;;;;;;18.00;99.90;;;;;;4968024;28;19949;-69
2022/08/24 05:16:40;;;;;;;;;;;;;;;;;;4957732;28;19934;-69
2022/08/24 05:19:07;;;;;;;;;;;;;;;;;;4955192;28;19934;-70
2022/08/24 05:21:34;;;;;;;;;;;;;;;;;;4960624;28;20054;-69
2022/08/24 05:24:01;;;;;;;;;;;;;;;;;;4967246;28;19930;-68
2022/08/24 05:26:28;;;;;;;;;;;;;;;;;;4960111;28;20556;-69
2022/08/24 05:28:55;;;;;;;;;;;;;;;;;;4957406;28;19941;-69
2022/08/24 05:31:22;;;;;;;;;;;;;;;;;;4959341;28;19946;-69
2022/08/24 05:33:49;;;;;;;;;;;;;;;;;;4968590;28;19933;-68
2022/08/24 05:36:16;;;;;;;;;;;;;;;;;;4967218;28;20281;-68
2022/08/24 05:38:43;;;;;;;;;;;;;;;;;;4959203;28;19930;-68
2022/08/24 05:41:10;;;;;;;;;;;;;;;;;;4956677;28;19926;-69
2022/08/24 05:43:38;;;;;;;;;;;;;;;;;;4951383;28;20285;-70
2022/08/24 05:46:05;;;;;;;;;;;;;;;;;;4950985;28;20392;-68
2022/08/24 05:48:33;;;;;;;;;;;;;;;;;;4960925;28;20440;-69
2022/08/24 05:51:00;;;;;;;;;;;;;;;;;;4965771;28;19933;-70
2022/08/24 05:53:27;;;;;;;;;;;;;;;;;;4962622;28;19925;-70
2022/08/24 05:55:54;;;;;;;;;;;;;;;;;;4956169;28;19926;-69
2022/08/24 05:58:21;;;;;;;;;;;;;;;;;;4960135;28;19934;-69
2022/08/24 06:00:49;;;;;;;;;;;;;;;;;;4956688;28;20016;-71
2022/08/24 06:03:16;;;;;;;;;;;;;;;;;;4954897;28;20328;-69
2022/08/24 06:05:43;;;;;;;;;;;;;;;;;;4955803;28;20299;-69
2022/08/24 06:08:10;;;;;;;;;;;;;;;;;;4956379;28;19945;-70
2022/08/24 06:10:37;;;;;;;;;;;;;;;;;;4954485;28;20296;-69
2022/08/24 06:13:04;;;;;;;;;;;;;;;;;;4957713;28;20507;-70
2022/08/24 06:15:31;;;;;;;;;;;;;;;;;;4967866;28;19926;-71
2022/08/24 06:17:58;;;;;;;;;;;;;;;;;;4957526;28;20021;-71
2022/08/24 06:20:25;;;;;;;;;;;;;;;;;;4955578;28;19930;-71
2022/08/24 06:22:52;;;;;;;;;;;;;;;;;;4956246;28;20518;-71
2022/08/24 06:28:04;;;;;;;;;;;;;;;;;;4954945;28;19925;-70
2022/08/24 06:30:31;;;;;;;;;;;;;;;;;;4956030;28;19930;-73
2022/08/24 06:32:58;;;;;;;;;;;;;;;;;;4964821;28;19969;-70
2022/08/24 06:35:25;;;;;;;;;;;;;;;;;;4964000;28;19926;-70
2022/08/24 06:37:52;;;;;;;;;;;;;;;;;;4965427;28;20385;-70
2022/08/24 06:40:19;;;;;;;;;;;;;;;;;;4965867;28;19927;-70
2022/08/24 06:42:47;;;;;;;;;;;;;;;;;;4967211;28;20008;-70
2022/08/24 06:45:14;;;;;;;;;;;;;;;;;;4964184;28;19930;-70
2022/08/24 06:47:41;;;;;;;;;;;;;;;;;;4968100;28;19930;-71
2022/08/24 06:50:08;;;;;;;;;;;;;;;;;;4963879;28;19933;-70
2022/08/24 06:52:35;;;;;;;;;;;;;;;;;;4965215;28;20001;-70
2022/08/24 06:55:02;;;;;;;;;;;;;;;;;;4965274;28;20005;-70
2022/08/24 06:57:30;;;;;;;;;;;;;;;;;;4958355;28;19970;-70
2022/08/24 06:59:57;;;;;;;;;;;;;;;;;;4959304;28;19984;-71
2022/08/24 07:02:24;;;;;;;;;;;;;;;;;;4959432;28;19934;-70
2022/08/24 07:04:51;;;;;;;;;;;;;;;;;;4969968;28;20028;-69
2022/08/24 07:07:18;;;;;;;;;;;;;;;;;;4958625;28;19934;-70
2022/08/24 07:09:45;;;;;;;;;;;;;;;;;;4954268;28;20042;-69
2022/08/24 07:12:12;;;;;;;;;;;;;;;;;;4959421;28;19941;-68
2022/08/24 07:14:39;;;;;;;;;;;;;;;;;;4961831;28;20017;-68
2022/08/24 07:17:06;;;;;;;;;;;;;;;;;;4963623;28;19961;-69
2022/08/24 07:19:33;;;;;;;;;;;;;;;;;;4959941;28;19930;-69
2022/08/24 07:22:00;;;;;;;;;;;;;;;;;;4964521;28;20362;-70
2022/08/24 07:24:27;;;;;;;;;;;;;;;;;;4964311;28;19930;-69
2022/08/24 07:26:55;;;;;;;;;;;;;;;;;;4966490;28;20304;-69
2022/08/24 07:29:22;;;;;;;;;;;;;;;;;;4969472;28;19926;-69
2022/08/24 07:31:49;;;;;;;;;;;;;;;;;;4968844;28;19973;-69
2022/08/24 07:34:16;;;;;;;;;;;;;;;;;;4970464;28;19933;-70
2022/08/24 07:36:43;;;;;;;;;;;;;;;;;;4968961;28;19926;-69
2022/08/24 07:39:10;;;;;;;;;;;;;;;;;;4966439;28;19926;-69
2022/08/24 07:41:37;;;;;;;;;;;;;;;;;;4969898;28;19926;-69
2022/08/24 07:44:04;;;;;;;;;;;;;;;;;;4965642;28;20048;-69
2022/08/24 07:46:31;;;;;;;;;;;;;;;;;;4967084;28;20008;-69
2022/08/24 07:48:58;;;;;;;;;;;;;;;;;;4963716;28;19934;-69
2022/08/24 07:51:26;;;;;;;;;;;;;;;;;;4975803;28;19925;-69
2022/08/24 07:53:53;;;;;;;;;;;;;;;;;;4968753;28;19926;-69
2022/08/24 07:56:20;;;;;;;;;;;;;;;;;;4970283;28;19941;-69
2022/08/24 07:58:47;;;;;;;;;;;;;;;;;;4967164;28;20025;-68
2022/08/24 08:01:14;;;;;;;;;;;;;;;;;;4960048;28;20311;-71
2022/08/24 08:03:41;;;;;;;;;;;;;;;;;;4971308;28;19933;-70
2022/08/24 08:06:08;;;;;;;;;;;;;;;;;;4971228;28;19932;-69
2022/08/24 08:08:35;;;;;;;;;;;;;;;;;;4981139;28;20016;-70
2022/08/24 08:11:02;;;;;;;;;;;;;;;;;;4965895;28;20062;-67
2022/08/24 08:13:29;;;;;;;;;;;;;;;;;;4979298;28;19930;-72
2022/08/24 08:15:56;;;;;;;;;;;;;;;;;;4979153;28;19930;-71
2022/08/24 08:18:23;;;;;;;;;;;;;;;;;;4972795;28;19957;-69
2022/08/24 08:20:50;;;;;;;;;;;;;;;;;;4966226;28;20077;-69
2022/08/24 08:26:02;;;;;;;;;;;;;;;;;;4981720;28;19921;-69
2022/08/24 08:28:31;;;;;;;;;;;;;;;;;;4968627;28;20020;-69
2022/08/24 08:30:58;;;;;;;;;;;;;;;;;;4973378;28;20003;-70
2022/08/24 08:33:26;;;;;;;;;;;;;;;;;;4967330;28;19934;-70
2022/08/24 08:35:53;;;;;;;;;;;;;;;;;;4977996;28;19930;-71
2022/08/24 08:38:20;;;;;;;;;;;;;;;;;;4972319;28;20432;-71
2022/08/24 08:40:47;;;;;;;;;;;;;;;;;;4978957;28;19926;-70
2022/08/24 08:43:14;;;;;;;;;;;;;;;;;;4961877;28;20290;-71
2022/08/24 08:45:40;;;;;;;;;;;;;;;;;;4971370;28;19981;-71
2022/08/24 08:48:09;;;;;;;;;;;;;;;;;;4977618;28;19969;-70
2022/08/24 08:50:46;;;;;;;;;;;24.00;99.90;;;;;;4959243;28;19927;-70
2022/08/24 08:53:37;;;;;;;;;;;24.00;99.90;;;;;;4963564;28;19957;-70
2022/08/24 08:56:09;;;;;;;;;;;24.20;99.90;;;;;;4968464;28;19934;-70
2022/08/24 08:58:51;;;;;;;;;;;24.50;99.90;;;;;;4959097;28;19930;-70
2022/08/24 09:01:21;;;;;;;;;;;24.70;99.90;;;;;;4972216;28;20194;-70
2022/08/24 09:04:06;;;;;;;;;;;25.30;99.90;;;;;;4968460;28;19926;-69
2022/08/24 09:06:40;;;;;;;;;;;25.60;99.90;;;;;;4957487;28;19930;-69
2022/08/24 09:09:15;;;;;;;;;;;26.50;99.90;;;;;;4966978;28;19934;-71
2022/08/24 09:11:47;;;;;;;;;;;27.00;99.90;;;;;;4958591;28;19926;-69
2022/08/24 09:14:25;;;;;;;;;;;26.80;99.90;;;;;;4955664;28;20482;-69
2022/08/24 09:16:59;;;;;;;;;;;27.00;99.90;;;;;;4959026;28;19972;-71
2022/08/24 09:19:34;;;;;;;;;;;27.30;99.90;;;;;;4965966;28;19977;-71
2022/08/24 09:22:08;;;;;;;;;;;27.60;99.90;;;;;;4975686;28;20406;-69
2022/08/24 09:24:47;;;;;;;;;;;29.90;99.90;;;;;;4963356;28;19931;-70
2022/08/24 09:27:14;;;;;;;;;;;;;;;;;;4958465;28;20026;-71
2022/08/24 09:29:41;;;;;;;;;;;;;;;;;;4962216;28;19926;-70
2022/08/24 09:32:08;;;;;;;;;;;;;;;;;;4974330;28;19930;-70
2022/08/24 09:34:35;;;;;;;;;;;;;;;;;;4965159;28;19926;-72
2022/08/24 09:37:02;;;;;;;;;;;;;;;;;;4961930;28;19932;-70
2022/08/24 09:39:29;;;;;;;;;;;;;;;;;;4960701;28;20028;-71
2022/08/24 09:41:56;;;;;;;;;;;;;;;;;;4963328;28;20015;-71
2022/08/24 09:44:23;;;;;;;;;;;;;;;;;;4962962;28;19926;-71
2022/08/24 09:46:50;;;;;;;;;;;;;;;;;;4963654;28;19934;-71
2022/08/24 09:49:17;;;;;;;;;;;;;;;;;;4962634;28;19930;-71
2022/08/24 09:51:53;;;;;;;;;;;30.60;72.40;;;;;;4967947;28;19926;-72
2022/08/24 09:54:38;;;;;;;;;;;30.40;80.10;;;;;;4969158;28;20265;-71
2022/08/24 09:57:22;;;;;;;;;;;29.90;80.80;;;;;;4973469;28;19926;-71
2022/08/24 09:59:56;;;;;;;;;;;29.00;81.60;;;;;;4964124;28;20008;-71
2022/08/24 10:02:30;;;;;;;;;;;29.20;85.00;;;;;;4960763;28;20393;-72
2022/08/24 10:05:02;;;;;;;;;;;30.30;78.00;;;;;;4968270;28;19984;-70
2022/08/24 10:07:36;;;;;;;;;;;29.10;81.50;;;;;;4961673;28;20223;-72
2022/08/24 10:10:10;;;;;;;;;;;28.30;90.00;;;;;;4968192;28;19926;-70
2022/08/24 10:12:41;;;;;;;;;;;27.90;91.60;;;;;;4968037;28;19926;-70
2022/08/24 10:15:09;;;;;;;;;;;27.90;91.40;;;;;;4961071;28;19932;-70
2022/08/24 10:17:46;;;;;;;;;;;28.20;91.00;;;;;;4972438;28;19932;-70
2022/08/24 10:20:19;;;;;;;;;;;28.10;91.50;;;;;;4967264;28;19929;-71
2022/08/24 10:23:10;;;;;;;;;;;27.80;91.70;;;;;;4975080;28;19987;-70
2022/08/24 10:25:39;;;;;;;;;;;27.70;92.30;;;;;;4974922;28;19966;-71
2022/08/24 10:28:24;;;;;;;;;;;27.70;91.40;;;;;;4967440;28;19926;-71
2022/08/24 10:30:56;;;;;;;;;;;27.90;91.20;;;;;;4970161;28;19926;-70
2022/08/24 10:33:24;;;;;;;;;;;27.90;92.10;;;;;;4970417;28;20436;-70
2022/08/24 10:36:08;;;;;;;;;;;28.20;87.80;;;;;;4978860;28;19926;-72
2022/08/24 10:41:45;;;;;;;;;;;28.40;84.00;;;;;;4972549;28;20304;-72
2022/08/24 10:44:19;;;;;;;;;;;27.90;87.30;;;;;;4959132;28;19926;-71
2022/08/24 10:46:50;;;;;;;;;;;27.90;85.10;;;;;;4966766;28;20624;-70
2022/08/24 10:49:40;;;;;;;;;;;27.60;86.80;;;;;;4972699;28;19936;-70
2022/08/24 10:52:16;;;;;;;;;;;27.90;85.90;;;;;;4965942;28;19926;-70
2022/08/24 10:54:45;;;;;;;;;;;28.00;86.00;;;;;;4966978;28;19953;-71
2022/08/24 10:57:15;;;;;;;;;;;28.00;88.40;;;;;;4968897;28;19954;-71
2022/08/24 10:59:49;;;;;;;;;;;28.10;87.70;;;;;;4974049;28;20021;-70
2022/08/24 11:02:28;;;;;;;;;;;28.60;84.90;;;;;;4969146;28;20415;-70
2022/08/24 11:04:56;;;;;;;;;;;28.80;83.10;;;;;;4971774;28;20025;-71
2022/08/24 11:07:22;;;;;;;;;;;28.70;79.00;;;;;;4958537;28;20028;-70
2022/08/24 11:09:53;;;;;;;;;;;28.50;81.10;;;;;;4958573;28;19980;-71
2022/08/24 11:12:25;;;;;;;;;;;28.40;83.20;;;;;;4958917;28;19933;-70
2022/08/24 11:14:52;;;;;;;;;;;28.60;82.80;;;;;;4955525;28;20490;-70
2022/08/24 11:17:20;;;;;;;;;;;28.50;81.10;;;;;;4967358;28;20283;-70
2022/08/24 11:19:47;;;;;;;;;;;28.50;80.30;;;;;;4964973;28;20045;-67
2022/08/24 11:22:39;;;;;;;;;;;28.50;80.90;;;;;;4966591;28;22312;-70
2022/08/24 11:25:14;;;;;;;;;;;28.90;77.10;;;;;;4972323;28;20016;-68
2022/08/24 11:27:43;;;;;;;;;;;29.00;71.00;;;;;;4965217;28;19925;-70
2022/08/24 11:30:12;;;;;;;;;;;29.30;70.80;;;;;;4973621;28;20388;-71
2022/08/24 11:32:40;;;;;;;;;;;29.20;70.10;;;;;;4971964;28;19934;-71
2022/08/24 11:35:09;;;;;;;;;;;29.10;72.30;;;;;;4968436;28;19973;-69
2022/08/24 11:37:38;;;;;;;;;;;29.10;71.00;;;;;;4962822;28;19979;-70
2022/08/24 11:40:05;;;;;;;;;;;29.00;71.20;;;;;;4969811;28;19952;-71
2022/08/24 11:42:42;;;;;;;;;;;29.20;70.80;;;;;;4981056;28;20351;-70
2022/08/24 11:45:12;;;;;;;;;;;29.60;67.80;;;;;;4961225;28;19926;-70
2022/08/24 11:47:51;;;;;;;;;;;29.10;67.70;;;;;;4970394;28;19940;-70
2022/08/24 11:50:32;;;;;;;;;;;29.20;68.50;;;;;;4977209;28;19925;-70
2022/08/24 11:53:03;;;;;;;;;;;29.60;66.00;;;;;;4966389;28;19930;-71
2022/08/24 11:55:33;;;;;;;;;;;29.70;63.10;;;;;;4962288;28;19976;-70
2022/08/24 11:58:05;;;;;;;;;;;29.90;61.60;;;;;;4964952;28;20717;-69
2022/08/24 12:00:39;;;;;;;;;;;30.00;61.40;;;;;;4968336;28;19926;-70
2022/08/24 12:03:11;;;;;;;;;;;29.80;60.00;;;;;;4978865;28;19949;-70
2022/08/24 12:05:44;;;;;;;;;;;29.60;59.90;;;;;;4961752;28;20944;-70
2022/08/24 12:08:17;;;;;;;;;;;29.30;61.70;;;;;;4961202;28;20381;-71
2022/08/24 12:10:49;;;;;;;;;;;29.20;61.20;;;;;;4962451;28;20404;-71
2022/08/24 12:13:24;;;;;;;;;;;29.60;60.00;;;;;;4967414;28;20024;-71
2022/08/24 12:15:54;;;;;;;;;;;30.00;59.40;;;;;;4960620;28;19979;-71
2022/08/24 12:18:24;;;;;;;;;;;30.20;57.40;;;;;;4963334;28;19965;-69
2022/08/24 12:20:52;;;;;;;;;;;30.10;55.60;;;;;;4954956;28;19927;-70
2022/08/24 12:23:23;;;;;;;;;;;29.80;58.50;;;;;;4957347;28;19936;-69
2022/08/24 12:26:03;;;;;;;;;;;29.60;56.50;;;;;;4963338;28;20024;-71
2022/08/24 12:28:35;;;;;;;;;;;29.30;56.80;;;;;;4969081;28;19926;-71
2022/08/24 12:31:06;;;;;;;;;;;29.90;56.70;;;;;;4965015;28;20322;-70
2022/08/24 12:33:35;;;;;;;;;;;30.60;54.30;;;;;;4956081;28;19936;-70
2022/08/24 12:36:04;;;;;;;;;;;30.90;52.60;;;;;;4959936;28;20403;-70
2022/08/24 12:38:33;;;;;;;;;;;31.10;51.70;;;;;;4968875;28;19933;-70
2022/08/24 12:41:01;;;;;;;;;;;31.10;50.10;;;;;;4975148;28;19937;-69
2022/08/24 12:43:31;;;;;;;;;;;31.10;49.60;;;;;;4955488;28;19931;-69
2022/08/24 12:46:00;;;;;;;;;;;31.30;48.90;;;;;;4963591;28;19926;-69
2022/08/24 12:48:30;;;;;;;;;;;31.00;49.00;;;;;;4971529;28;19926;-70
2022/08/24 12:51:04;;;;;;;;;;;30.80;49.30;;;;;;4966503;28;20029;-70
2022/08/24 12:54:04;;;;;;;;;;;30.90;48.80;;;;;;4969299;28;20008;-69
2022/08/24 12:56:51;;;;;;;;;;;30.80;48.70;;;;;;5001534;28;19925;-72
2022/08/24 12:59:20;;;;;;;;;;;30.90;48.40;;;;;;4997276;28;19988;-71
2022/08/24 13:01:57;;;;;;;;;;;31.20;47.90;;;;;;4976622;28;19973;-69
2022/08/24 13:04:30;;;;;;;;;;;31.30;47.80;;;;;;4977854;28;20446;-70
2022/08/24 13:07:00;;;;;;;;;;;31.70;47.50;;;;;;4968621;28;19930;-70
2022/08/24 13:09:28;;;;;;;;;;;31.80;45.40;;;;;;4969614;28;19989;-70
2022/08/24 13:11:57;;;;;;;;;;;31.60;45.20;;;;;;4978182;28;19926;-70
2022/08/24 13:14:25;;;;;;;;;;;31.50;44.70;;;;;;4974117;28;19933;-70
2022/08/24 13:17:07;;;;;;;;;;;31.40;45.10;;;;;;4968209;28;19926;-71
2022/08/24 13:19:36;;;;;;;;;;;31.10;46.00;;;;;;4964041;28;20018;-69
2022/08/24 13:22:17;;;;;;;;;;;30.70;46.00;;;;;;4965099;28;19926;-70
2022/08/24 13:24:45;;;;;;;;;;;30.80;46.00;;;;;;4961406;28;19926;-71
2022/08/24 13:27:30;;;;;;;;;;;31.20;45.60;;;;;;4961425;28;20270;-70
2022/08/24 13:30:04;;;;;;;;;;;31.10;44.90;;;;;;4954632;28;20021;-70
2022/08/24 13:32:38;;;;;;;;;;;31.30;44.50;;;;;;4966095;28;20367;-71
2022/08/24 13:35:19;;;;;;;;;;;31.00;43.80;;;;;;4970622;28;19962;-70
2022/08/24 13:38:13;;;;;;;;;;;31.20;43.60;;;;;;4968070;28;19926;-70
2022/08/24 13:40:45;;;;;;;;;;;31.00;44.40;;;;;;4974071;28;19926;-71
2022/08/24 13:43:16;;;;;;;;;;;31.00;43.30;;;;;;4978739;28;19933;-70
2022/08/24 13:45:46;;;;;;;;;;;31.10;42.80;;;;;;4969287;28;19926;-71
2022/08/24 13:48:20;;;;;;;;;;;31.10;42.90;;;;;;4965290;28;19932;-71
2022/08/24 13:50:50;;;;;;;;;;;30.40;43.70;;;;;;4970711;28;20018;-70
2022/08/24 13:53:43;;;;;;;;;;;30.00;45.20;;;;;;4973031;28;19926;-70
2022/08/24 13:56:21;;;;;;;;;;;30.00;45.30;;;;;;4980542;28;19977;-71
2022/08/24 13:58:52;;;;;;;;;;;30.50;44.30;;;;;;4973991;28;20300;-71
2022/08/24 14:01:24;;;;;;;;;;;31.30;42.80;;;;;;4975242;28;20016;-71
2022/08/24 14:04:02;;;;;;;;;;;31.90;41.30;;;;;;4972067;28;20051;-70
2022/08/24 14:06:32;;;;;;;;;;;32.10;40.20;;;;;;4975228;28;19934;-71
2022/08/24 14:09:03;;;;;;;;;;;31.40;40.30;;;;;;4974266;28;20415;-70
2022/08/24 14:11:37;;;;;;;;;;;31.30;40.40;;;;;;4960917;28;19965;-70
2022/08/24 14:14:08;;;;;;;;;;;31.50;39.90;;;;;;4961501;28;20034;-71
2022/08/24 14:19:27;;;;;;;;;;;31.80;38.60;;;;;;4963303;28;20344;-72
2022/08/24 14:21:56;;;;;;;;;;;31.90;38.60;;;;;;4961703;28;19934;-72
2022/08/24 14:24:25;;;;;;;;;;;31.70;37.80;;;;;;4957828;28;19996;-72
2022/08/24 14:27:09;;;;;;;;;;;31.70;37.10;;;;;;4962840;28;19930;-72
2022/08/24 14:29:39;;;;;;;;;;;32.10;35.40;;;;;;4951796;28;20404;-72
2022/08/24 14:32:33;;;;;;;;;;;32.30;35.40;;;;;;4961245;28;20514;-72
2022/08/24 14:35:09;;;;;;;;;;;32.60;33.70;;;;;;4965955;28;19934;-72
2022/08/24 14:37:41;;;;;;;;;;;32.20;35.20;;;;;;4963602;28;19937;-71
2022/08/24 14:40:15;;;;;;;;;;;32.00;37.40;;;;;;4965016;28;19926;-72
2022/08/24 14:42:46;;;;;;;;;;;32.00;37.70;;;;;;4961305;28;20103;-72
2022/08/24 14:45:18;;;;;;;;;;;32.40;37.00;;;;;;4950099;28;20045;-72
2022/08/24 14:47:50;;;;;;;;;;;32.50;36.40;;;;;;4959983;28;20008;-72
2022/08/24 14:50:20;;;;;;;;;;;32.70;35.60;;;;;;4962690;28;19932;-72
2022/08/24 14:52:59;;;;;;;;;;;32.90;34.70;;;;;;4961475;28;19926;-72
2022/08/24 14:55:30;;;;;;;;;;;32.90;33.90;;;;;;4959887;28;20309;-71
2022/08/24 14:58:02;;;;;;;;;;;32.50;49.20;;;;;;4966398;28;20577;-71
2022/08/24 15:00:45;;;;;;;;;;;32.10;48.70;;;;;;4959563;28;20049;-71
2022/08/24 15:03:22;;;;;;;;;;;32.00;50.50;;;;;;4956572;28;20385;-71
2022/08/24 15:06:02;;;;;;;;;;;32.20;54.00;;;;;;4959235;28;20376;-71
2022/08/24 15:08:31;;;;;;;;;;;32.10;50.40;;;;;;4957401;28;19930;-71
2022/08/24 15:11:01;;;;;;;;;;;32.10;50.40;;;;;;4979047;23;20332;-72
2022/08/24 15:13:29;;;;;;;;;;;32.20;50.10;;;;;;5000129;28;19930;-71
2022/08/24 15:15:59;;;;;;;;;;;31.70;50.70;;;;;;4984515;28;20024;-71
2022/08/24 15:18:38;;;;;;;;;;;31.20;54.50;;;;;;4982181;28;19950;-70
2022/08/24 15:21:09;;;;;;;;;;;30.70;55.80;;;;;;4974971;28;19952;-71